Time;durP1;ratioP1;P1;durP2;ratioP2;P2;SDS_P1;SDS_P2;PMS_P1;PMS_P2;Temp;Humidity;BMP_temperature;BMP_pressure;BME280_temperature;BME280_humidity;BME280_pressure;Samples;Min_cycle;Max_cycle;Signal;HPM_P1;HPM_P2
2023/03/20 00:14:37;;;;;;;;;;;;;;;;;;;;;
2023/03/20 00:26:00;;;;;;;17.10;7.90;;;;;;;4.92;82.86;101314.35;112072;1238;60948;-96
2023/03/20 00:33:37;;;;;;;18.00;8.70;;;;;;;4.80;82.58;101308.41;112710;1231;72435;-96
2023/03/20 00:36:39;;;;;;;17.00;7.20;;;;;;;4.72;82.64;101308.10;112385;1235;64036;-96
2023/03/20 00:46:31;;;;;;;18.20;7.80;;;;;;;4.73;83.10;101304.27;112753;1231;58766;-96
2023/03/20 00:59:56;;;;;;;22.90;8.50;;;;;;;4.94;83.04;101299.57;112773;1231;57856;-95
2023/03/20 01:03:04;;;;;;;11.70;8.20;;;;;;;4.98;82.33;101302.58;111834;1241;58673;-95
2023/03/20 01:05:57;;;;;;;18.20;8.50;;;;;;;4.90;81.82;101295.71;112600;1232;72025;-96
2023/03/20 01:09:55;;;;;;;25.60;9.40;;;;;;;4.78;81.83;101294.45;112330;1232;63922;-96
2023/03/20 01:18:32;;;;;;;;;;;;;;;;;;;;;
2023/03/20 01:31:41;;;;;;;19.60;8.30;;;;;;;4.70;81.78;101297.39;110366;1253;64591;-96
2023/03/20 01:42:39;;;;;;;29.20;8.80;;;;;;;4.76;81.09;101297.95;112273;1238;58731;-96
2023/03/20 01:46:20;;;;;;;24.60;9.00;;;;;;;4.68;80.64;101296.60;112863;1231;71566;-95
2023/03/20 01:50:07;;;;;;;23.60;8.90;;;;;;;4.54;80.40;101300.75;112617;1231;64593;-96
2023/03/20 01:54:16;;;;;;;19.90;8.80;;;;;;;4.37;80.90;101303.73;112161;1232;72491;-95
2023/03/20 02:02:34;;;;;;;23.90;9.50;;;;;;;4.34;81.64;101302.91;112685;1234;59399;-96
2023/03/20 02:06:34;;;;;;;23.00;9.60;;;;;;;4.45;81.55;101307.19;112611;1235;71520;-96
2023/03/20 02:11:04;;;;;;;23.20;8.90;;;;;;;4.53;81.10;101307.68;112584;1231;61472;-96
2023/03/20 02:14:07;;;;;;;21.90;9.90;;;;;;;4.56;80.93;101309.71;112178;1232;71909;-95
2023/03/20 02:39:30;;;;;;;18.40;9.80;;;;;;;4.34;81.18;101308.65;111619;1228;61223;31
2023/03/20 03:08:10;;;;;;;25.70;11.30;;;;;;;4.21;82.30;101294.59;112063;1232;72974;-96
2023/03/20 03:24:52;;;;;;;19.80;11.10;;;;;;;4.33;82.89;101295.69;112417;1232;71366;-95
2023/03/20 03:54:19;;;;;;;30.50;11.50;;;;;;;4.28;82.86;101299.08;112241;1232;72866;-96
2023/03/20 03:58:51;;;;;;;30.60;12.60;;;;;;;4.36;83.42;101302.36;112677;1230;62453;-96
2023/03/20 04:22:09;;;;;;;26.30;13.40;;;;;;;4.57;82.79;101302.73;112144;1238;59652;-96
2023/03/20 05:36:55;;;;;;;39.50;17.10;;;;;;;4.70;82.58;101300.70;112794;1232;72437;-95
2023/03/20 05:52:54;;;;;;;31.60;15.30;;;;;;;4.72;82.51;101304.64;111454;1250;58699;-96
2023/03/20 06:33:00;;;;;;;28.80;14.20;;;;;;;5.08;81.41;101328.84;109325;1262;70829;-96
2023/03/20 06:41:33;;;;;;;38.00;14.80;;;;;;;4.98;82.00;101323.73;109620;1262;71553;-96
2023/03/20 06:44:10;;;;;;;35.00;15.60;;;;;;;4.85;82.04;101326.83;109668;1249;59478;-94
2023/03/20 06:47:17;;;;;;;35.30;14.40;;;;;;;4.74;82.37;101321.38;109483;1248;61148;-96
2023/03/20 06:49:53;;;;;;;45.00;16.50;;;;;;;4.76;82.75;101323.41;109704;1248;71979;-95
2023/03/20 06:53:01;;;;;;;38.50;16.40;;;;;;;4.83;82.75;101321.86;110550;1248;63512;-94
2023/03/20 06:56:22;;;;;;;42.50;16.60;;;;;;;4.88;82.48;101318.79;111458;1246;73881;-95
2023/03/20 07:00:46;;;;;;;38.20;13.60;;;;;;;4.91;82.71;101324.59;110824;1240;62843;-96
2023/03/20 07:04:36;;;;;;;39.00;15.00;;;;;;;4.92;82.47;101325.44;111609;1240;58847;-95
2023/03/20 07:17:23;;;;;;;43.70;17.60;;;;;;;4.97;82.87;101327.04;110716;1247;70535;-96
2023/03/20 08:03:56;;;;;;;31.80;11.80;;;;;;;5.42;79.65;101329.35;110933;1236;71732;31
2023/03/20 08:26:55;;;;;;;41.70;12.70;;;;;;;5.47;79.35;101321.05;111370;1241;63871;-93
2023/03/20 08:29:47;;;;;;;32.10;11.20;;;;;;;5.60;78.97;101319.65;111656;1244;72605;-93
2023/03/20 08:32:25;;;;;;;31.90;11.20;;;;;;;5.72;78.33;101318.95;110880;1242;61107;-93
2023/03/20 08:35:13;;;;;;;38.90;10.50;;;;;;;5.74;77.75;101321.35;111314;1241;59446;-93
2023/03/20 08:42:12;;;;;;;37.70;10.70;;;;;;;5.80;77.86;101321.16;111843;1241;63371;-96
2023/03/20 08:45:55;;;;;;;36.60;10.70;;;;;;;5.99;77.28;101324.98;106439;1292;599596;-94
2023/03/20 08:48:26;;;;;;;25.30;9.20;;;;;;;6.03;77.14;101327.14;108684;1266;60073;-92
2023/03/20 08:51:01;;;;;;;30.90;10.90;;;;;;;6.13;77.22;101327.17;107611;1260;62776;-95
2023/03/20 08:53:34;;;;;;;21.80;9.60;;;;;;;6.31;76.94;101329.06;107340;1260;73252;-95
2023/03/20 08:56:06;;;;;;;44.40;12.40;;;;;;;6.39;76.10;101330.04;107232;1261;64861;-95
2023/03/20 08:58:40;;;;;;;32.60;10.50;;;;;;;6.39;75.58;101328.80;107292;1260;761830;-94
2023/03/20 09:01:11;;;;;;;41.10;10.70;;;;;;;6.42;75.53;101329.92;108201;1261;59263;-95
2023/03/20 09:03:43;;;;;;;36.70;11.00;;;;;;;6.44;75.35;101329.52;107561;1258;60220;-95
2023/03/20 09:06:15;;;;;;;43.10;11.70;;;;;;;6.40;75.17;101322.35;108312;1256;72688;-96
2023/03/20 09:08:55;;;;;;;40.90;11.70;;;;;;;6.38;75.28;101323.63;108225;1257;64310;-96
2023/03/20 09:12:19;;;;;;;30.50;9.60;;;;;;;6.39;75.43;101320.48;108707;1260;71258;-95
2023/03/20 09:16:10;;;;;;;29.70;10.20;;;;;;;6.50;75.26;101311.42;108803;1264;59233;-95
2023/03/20 09:23:23;;;;;;;;;;;;;;;6.66;75.11;101309.20;108751;1266;71999;-94
2023/03/20 09:26:12;;;;;;;28.90;10.10;;;;;;;6.73;74.75;101306.70;108425;1266;63600;-95
2023/03/20 09:28:47;;;;;;;31.20;11.60;;;;;;;6.73;74.56;101306.02;107791;1267;72515;-96
2023/03/20 09:31:34;;;;;;;33.90;9.70;;;;;;;6.74;74.40;101302.86;108720;1267;59249;-96
2023/03/20 09:34:02;;;;;;;38.20;11.90;;;;;;;6.74;74.41;101297.80;108416;1266;61240;-94
2023/03/20 09:36:34;;;;;;;30.10;11.10;;;;;;;6.75;74.26;101297.23;107875;1266;74558;-93
2023/03/20 09:39:03;;;;;;;34.60;11.20;;;;;;;6.74;73.90;101296.59;107908;1267;65136;-92
2023/03/20 09:41:36;;;;;;;35.60;10.10;;;;;;;6.76;73.77;101298.77;108106;1266;72788;-91
2023/03/20 09:44:35;;;;;;;27.70;9.00;;;;;;;6.81;73.67;101295.85;107900;1266;61037;-92
2023/03/20 09:47:39;;;;;;;37.30;10.90;;;;;;;6.82;73.63;101298.40;107309;1263;60792;-91
2023/03/20 09:50:35;;;;;;;29.70;10.10;;;;;;;6.82;73.29;101297.70;108597;1263;73129;-95
2023/03/20 09:53:37;;;;;;;23.30;8.80;;;;;;;6.78;73.59;101294.20;107139;1264;63996;-95
2023/03/20 09:56:28;;;;;;;42.80;10.40;;;;;;;6.85;73.68;101292.58;107206;1263;75184;-94
2023/03/20 09:58:58;;;;;;;36.70;11.30;;;;;;;6.93;73.63;101294.75;106913;1264;59733;-93
2023/03/20 10:01:34;;;;;;;35.80;13.70;;;;;;;6.96;73.14;101294.64;107378;1263;60095;-95
2023/03/20 10:04:36;;;;;;;35.30;10.60;;;;;;;6.93;73.59;101290.76;107674;1261;73365;-96
2023/03/20 10:07:13;;;;;;;30.00;10.00;;;;;;;6.91;73.22;101287.69;107657;1262;65092;-94
2023/03/20 10:10:10;;;;;;;23.10;10.00;;;;;;;6.88;73.33;101285.52;107790;1261;72485;-94
2023/03/20 10:13:26;;;;;;;31.80;11.40;;;;;;;6.88;73.51;101285.52;108207;1261;59934;-95
2023/03/20 10:16:34;;;;;;;27.10;10.20;;;;;;;6.87;73.51;101286.09;108087;1261;60715;-94
2023/03/20 10:19:30;;;;;;;30.20;10.20;;;;;;;6.92;73.76;101285.20;108255;1261;73119;-95
2023/03/20 10:22:35;;;;;;;21.60;9.60;;;;;;;6.98;73.28;101276.14;108079;1263;63777;-92
2023/03/20 10:26:15;;;;;;;25.00;10.00;;;;;;;7.02;73.24;101275.64;107996;1261;71741;-93
2023/03/20 10:29:42;;;;;;;32.90;10.40;;;;;;;7.12;73.04;101273.23;108040;1261;60303;-94
2023/03/20 10:32:43;;;;;;;22.20;11.50;;;;;;;7.18;73.08;101269.55;107154;1262;61107;-94
2023/03/20 10:35:30;;;;;;;32.40;13.00;;;;;;;7.23;73.10;101262.74;106977;1264;74024;-95
2023/03/20 10:38:31;;;;;;;24.20;9.80;;;;;;;7.27;72.69;101253.38;107198;1265;63813;-93
2023/03/20 10:41:00;;;;;;;29.30;9.80;;;;;;;7.32;72.35;101249.75;107037;1262;73652;-93
2023/03/20 10:43:32;;;;;;;23.80;10.40;;;;;;;7.35;72.29;101247.19;106431;1262;59700;-94
2023/03/20 10:46:21;;;;;;;39.20;10.70;;;;;;;7.36;72.38;101244.73;106914;1264;61656;-92
2023/03/20 10:49:05;;;;;;;38.30;11.00;;;;;;;7.42;72.42;101238.92;106986;1262;71804;-93
2023/03/20 10:51:45;;;;;;;24.50;9.20;;;;;;;7.49;72.28;101237.10;107690;1261;64639;-93
2023/03/20 10:54:38;;;;;;;30.20;9.70;;;;;;;7.59;72.07;101227.49;109205;1257;73987;-93
2023/03/20 10:58:55;;;;;;;24.90;9.20;;;;;;;7.73;71.47;101228.73;109268;1257;60317;-95
2023/03/20 11:01:28;;;;;;;19.20;8.80;;;;;;;7.67;70.94;101229.11;107403;1257;60149;-93
2023/03/20 11:04:04;;;;;;;20.20;8.00;;;;;;;7.66;71.16;101231.77;108578;1258;74040;-92
2023/03/20 11:11:49;;;;;;;24.00;8.30;;;;;;;7.64;71.04;101229.41;109305;1258;71159;-92
2023/03/20 11:16:08;;;;;;;25.50;9.10;;;;;;;7.69;71.48;101221.20;109147;1256;60134;-93
2023/03/20 11:27:30;;;;;;;33.50;12.70;;;;;;;8.01;71.40;101214.20;102236;1256;62522;-95
2023/03/20 11:31:13;;;;;;;37.60;10.00;;;;;;;8.04;71.11;101211.30;108906;1256;73686;-96
2023/03/20 11:34:46;;;;;;;36.10;9.80;;;;;;;8.05;70.79;101204.65;108950;1256;59190;-95
2023/03/20 11:41:51;;;;;;;26.60;8.60;;;;;;;8.02;70.95;101204.80;108460;1262;74064;-96
2023/03/20 11:49:03;;;;;;;22.50;7.90;;;;;;;7.98;70.93;101195.02;107316;1257;71199;-96
2023/03/20 11:52:51;;;;;;;31.50;8.10;;;;;;;8.10;71.18;101194.52;109003;1256;61771;-96
2023/03/20 11:56:55;;;;;;;29.70;8.40;;;;;;;8.31;70.59;101193.85;108757;1260;59725;-96
2023/03/20 12:07:29;;;;;;;27.70;9.80;;;;;;;8.54;69.12;101185.61;104733;1268;74191;-95
2023/03/20 12:11:36;;;;;;;27.80;8.10;;;;;;;8.57;69.06;101192.45;108763;1261;60051;31
2023/03/20 12:14:45;;;;;;;31.00;8.40;;;;;;;8.53;69.12;101184.44;107639;1272;60246;-95
2023/03/20 12:17:37;;;;;;;34.40;6.80;;;;;;;8.52;69.67;101186.42;106967;1276;73089;-95
2023/03/20 12:20:35;;;;;;;29.30;7.60;;;;;;;8.53;69.95;101179.73;107288;1273;63818;-94
2023/03/20 12:27:31;;;;;;;25.30;9.50;;;;;;;8.55;69.85;101176.52;108306;1270;58053;-96
2023/03/20 12:35:02;;;;;;;25.50;8.10;;;;;;;8.59;69.32;101159.42;108196;1270;72509;-95
2023/03/20 12:37:34;;;;;;;22.90;7.80;;;;;;;8.69;69.33;101159.89;107832;1270;65495;-96
2023/03/20 12:41:11;;;;;;;30.40;8.60;;;;;;;8.77;69.43;101158.30;108055;1269;73807;-96
2023/03/20 12:44:57;;;;;;;29.90;7.60;;;;;;;8.79;68.84;101163.98;107584;1269;59278;-95
2023/03/20 12:48:05;;;;;;;23.20;9.30;;;;;;;8.72;69.04;101167.75;108535;1270;61087;-95
2023/03/20 12:51:52;;;;;;;27.70;7.80;;;;;;;8.64;69.18;101162.67;108515;1267;76049;-96
2023/03/20 12:55:03;;;;;;;26.10;7.70;;;;;;;8.70;69.22;101164.52;108583;1270;64910;-95
2023/03/20 12:58:06;;;;;;;;;;;;;;;8.72;69.29;101161.33;108028;1268;71795;-96
2023/03/20 13:01:46;;;;;;;34.80;8.60;;;;;;;8.67;69.38;101156.80;108438;1268;58181;-96
2023/03/20 13:04:54;;;;;;;24.70;7.40;;;;;;;8.61;69.42;101152.89;107158;1268;59456;-96
2023/03/20 13:07:37;;;;;;;28.90;8.50;;;;;;;8.59;69.64;101147.24;106979;1267;73337;-96
2023/03/20 13:10:26;;;;;;;29.80;8.00;;;;;;;8.59;69.63;101148.81;107875;1268;62906;-96
2023/03/20 13:13:26;;;;;;;33.20;7.70;;;;;;;8.59;69.76;101152.96;107498;1268;73145;-96
2023/03/20 13:24:58;;;;;;;28.40;7.10;;;;;;;8.60;69.67;101153.81;108208;1265;73655;-94
2023/03/20 18:30:19;;;;;;;122.70;72.10;;;;;;;4.36;82.68;101110.39;106368;1292;599711;-96
2023/03/20 18:34:10;;;;;;;271.70;150.70;;;;;;;4.22;82.47;101112.16;108764;1265;59716;-95
2023/03/20 18:44:32;;;;;;;278.90;138.70;;;;;;;3.90;84.28;101108.80;103778;1260;5004395;-94
2023/03/20 20:00:01;;;;;;;143.50;72.70;;;;;;;2.81;85.60;101086.02;86812;1276;71475;31
2023/03/20 20:08:21;;;;;;;162.60;79.40;;;;;;;2.78;85.36;101084.69;107542;1273;58882;-96
2023/03/20 20:25:04;;;;;;;179.50;96.10;;;;;;;2.57;85.27;101063.17;92403;1276;59054;-96
2023/03/20 20:28:21;;;;;;;202.80;100.90;;;;;;;2.56;85.01;101057.52;107808;1276;73412;-96
2023/03/20 20:42:21;;;;;;;161.90;86.40;;;;;;;2.30;84.41;101039.89;106015;1267;59039;-94
2023/03/20 20:46:26;;;;;;;153.90;81.60;;;;;;;2.25;84.45;101046.36;107307;1271;71778;-96
2023/03/20 20:59:40;;;;;;;134.40;73.90;;;;;;;2.07;84.73;101049.64;107147;1273;59555;-96
2023/03/20 21:06:43;;;;;;;142.40;75.30;;;;;;;1.93;84.78;101044.36;101679;1273;65447;-94
2023/03/20 21:10:38;;;;;;;145.20;75.70;;;;;;;1.91;85.28;101036.46;108258;1276;71917;-96
2023/03/20 21:18:28;;;;;;;127.70;67.70;;;;;;;1.95;86.54;101029.67;108235;1276;59071;-94
2023/03/20 21:24:42;;;;;;;161.20;88.80;;;;;;;2.09;86.43;101028.90;108207;1273;63356;-94
2023/03/20 21:28:17;;;;;;;178.50;99.50;;;;;;;2.04;85.93;101027.94;108230;1265;73987;31
2023/03/20 21:31:23;;;;;;;156.10;84.70;;;;;;;1.98;85.30;101032.89;107670;1279;58182;-96
2023/03/20 21:34:05;;;;;;;148.00;82.70;;;;;;;1.92;85.02;101035.40;106798;1279;59773;-95
2023/03/20 21:36:49;;;;;;;158.80;83.00;;;;;;;1.86;84.80;101032.41;106047;1280;73210;-94
2023/03/20 21:39:43;;;;;;;124.30;69.10;;;;;;;1.80;84.75;101029.60;107315;1279;63262;-95
2023/03/20 21:42:18;;;;;;;138.80;74.60;;;;;;;1.71;85.01;101025.60;106378;1282;73060;-95
2023/03/20 21:44:48;;;;;;;135.60;75.90;;;;;;;1.72;85.33;101026.80;106333;1282;61508;-96
2023/03/20 21:47:38;;;;;;;112.90;64.50;;;;;;;1.68;85.59;101026.34;105287;1282;60585;-96
2023/03/20 21:50:24;;;;;;;115.80;64.20;;;;;;;1.70;85.99;101026.48;106811;1282;73378;-95
2023/03/20 21:53:14;;;;;;;105.60;56.00;;;;;;;1.74;85.96;101027.29;106689;1282;63404;-94
2023/03/20 21:56:03;;;;;;;110.50;57.60;;;;;;;1.74;85.84;101024.16;106500;1282;73522;-94
2023/03/20 21:58:52;;;;;;;106.30;58.10;;;;;;;1.73;85.59;101026.60;107123;1282;60918;-95
2023/03/20 22:01:42;;;;;;;88.10;49.30;;;;;;;1.70;85.41;101021.14;107277;1278;60298;-96
2023/03/20 22:04:38;;;;;;;100.40;56.70;;;;;;;1.69;85.49;101023.21;107874;1278;74598;-95
2023/03/20 22:07:34;;;;;;;94.40;52.50;;;;;;;1.69;85.59;101016.48;107748;1279;61857;-96
2023/03/20 22:10:22;;;;;;;106.90;56.60;;;;;;;1.73;86.02;101016.63;107718;1279;76077;-95
2023/03/20 22:13:46;;;;;;;101.20;56.00;;;;;;;1.73;85.93;101010.05;107921;1275;59331;-96
2023/03/20 22:16:44;;;;;;;101.50;57.70;;;;;;;1.78;85.51;101013.23;108179;1275;60034;-96
2023/03/20 22:19:34;;;;;;;106.40;56.60;;;;;;;1.74;85.16;101011.23;108017;1275;73367;-95
2023/03/20 22:22:29;;;;;;;108.40;61.60;;;;;;;1.70;84.98;101007.54;106565;1276;63964;-95
2023/03/20 22:25:18;;;;;;;140.50;71.40;;;;;;;1.68;84.98;101007.39;106772;1275;73900;-95
2023/03/20 22:28:08;;;;;;;110.50;58.40;;;;;;;1.64;85.04;101014.69;107701;1275;60904;-94
2023/03/20 22:30:57;;;;;;;100.60;55.90;;;;;;;1.58;85.29;101015.82;107375;1276;60147;-94
2023/03/20 22:33:49;;;;;;;108.00;59.10;;;;;;;1.56;85.36;101010.52;106095;1269;74078;-94
2023/03/20 22:36:54;;;;;;;115.80;62.00;;;;;;;1.57;85.75;101008.77;105926;1272;63683;-96
2023/03/20 22:39:40;;;;;;;116.60;58.90;;;;;;;1.59;85.73;101011.49;106376;1276;72967;-93
2023/03/20 22:42:36;;;;;;;105.00;58.90;;;;;;;1.62;85.46;101010.77;107218;1276;59984;-94
2023/03/20 22:45:26;;;;;;;99.60;56.50;;;;;;;1.61;84.94;101009.05;107050;1275;60824;-95
2023/03/20 22:48:15;;;;;;;103.30;59.50;;;;;;;1.56;84.70;101011.55;106029;1279;72861;-95
2023/03/20 22:50:49;;;;;;;103.70;55.40;;;;;;;1.48;84.47;101007.03;105004;1276;64528;-95
2023/03/20 22:53:18;;;;;;;105.50;53.90;;;;;;;1.38;84.49;101012.86;105025;1277;72724;-96
2023/03/20 22:55:49;;;;;;;98.20;51.10;;;;;;;1.29;84.59;101014.05;105176;1276;61260;-96
2023/03/20 22:58:18;;;;;;;96.20;52.20;;;;;;;1.21;84.83;101005.38;105152;1275;62036;-94
2023/03/20 23:00:53;;;;;;;102.80;59.20;;;;;;;1.22;85.29;101010.36;105649;1275;73934;-96
2023/03/20 23:03:28;;;;;;;96.60;53.60;;;;;;;1.22;85.59;101007.60;105866;1276;63863;-95
2023/03/20 23:06:20;;;;;;;110.20;64.90;;;;;;;1.25;86.09;101006.52;105518;1276;73662;-96
2023/03/20 23:08:51;;;;;;;125.50;77.30;;;;;;;1.28;85.85;101004.94;105863;1276;59800;-95
2023/03/20 23:11:26;;;;;;;127.10;76.70;;;;;;;1.26;85.86;101004.10;105442;1272;59748;-96
2023/03/20 23:14:00;;;;;;;;;;;;;;;1.24;86.32;100999.82;105460;1272;72180;-95
2023/03/20 23:16:33;;;;;;;125.80;71.80;;;;;;;1.28;86.35;101004.23;105497;1273;64595;-94
2023/03/20 23:19:12;;;;;;;113.60;67.90;;;;;;;1.26;86.22;100998.08;106074;1274;73689;-96
2023/03/20 23:21:42;;;;;;;112.80;64.30;;;;;;;1.26;86.32;101001.36;105616;1274;61099;-95
2023/03/20 23:24:34;;;;;;;125.60;69.60;;;;;;;1.24;86.08;100992.25;107890;1273;60138;-95
2023/03/20 23:27:24;;;;;;;119.60;66.10;;;;;;;1.22;86.13;100988.83;107637;1273;73892;-95
2023/03/20 23:29:55;;;;;;;118.00;71.60;;;;;;;1.23;86.38;100982.10;107791;1273;63736;-95
2023/03/20 23:32:45;;;;;;;124.70;68.50;;;;;;;1.23;86.74;100978.83;106367;1273;73696;-96
2023/03/20 23:35:14;;;;;;;131.80;76.00;;;;;;;1.26;86.88;100972.25;108510;1273;59290;-94
2023/03/20 23:37:45;;;;;;;138.80;75.60;;;;;;;1.33;87.10;100971.77;108405;1272;60228;-94
2023/03/20 23:40:15;;;;;;;127.50;74.20;;;;;;;1.40;86.87;100972.69;107978;1273;71970;-95
2023/03/20 23:43:07;;;;;;;122.70;69.50;;;;;;;1.44;86.50;100969.01;106202;1274;63919;-95
2023/03/20 23:45:39;;;;;;;126.40;68.80;;;;;;;1.46;85.88;100966.91;106932;1273;73538;-95
2023/03/20 23:48:12;;;;;;;124.40;68.30;;;;;;;1.44;85.69;100963.67;108360;1272;61238;-96
2023/03/20 23:50:40;;;;;;;122.90;71.00;;;;;;;1.43;85.55;100958.54;108054;1272;59075;-95
2023/03/20 23:53:26;;;;;;;117.70;70.00;;;;;;;1.43;85.43;100955.60;108008;1276;73895;-95
2023/03/20 23:55:57;;;;;;;123.60;71.80;;;;;;;1.44;85.34;100959.20;107968;1276;64718;-94
2023/03/20 23:58:34;;;;;;;128.90;74.10;;;;;;;1.46;85.45;100956.74;107305;1276;72213;-93
